sensor_id;sensor_type;location;lat;lon;timestamp;P1;durP1;ratioP1;P2;durP2;ratioP2
39022;SDS011;25908;51.984;5.928;2023-07-31T00:02:00;1.23;;;0.70;;
39022;SDS011;25908;51.984;5.928;2023-07-31T00:04:25;1.90;;;1.00;;
39022;SDS011;25908;51.984;5.928;2023-07-31T00:06:51;1.20;;;0.70;;
39022;SDS011;25908;51.984;5.928;2023-07-31T00:09:16;2.15;;;0.95;;
39022;SDS011;25908;51.984;5.928;2023-07-31T00:11:42;1.73;;;0.82;;
39022;SDS011;25908;51.984;5.928;2023-07-31T00:14:07;0.80;;;0.50;;
39022;SDS011;25908;51.984;5.928;2023-07-31T00:16:33;1.92;;;0.98;;
39022;SDS011;25908;51.984;5.928;2023-07-31T00:18:59;2.25;;;0.82;;
39022;SDS011;25908;51.984;5.928;2023-07-31T00:21:24;1.00;;;0.73;;
39022;SDS011;25908;51.984;5.928;2023-07-31T00:23:50;1.80;;;1.00;;
39022;SDS011;25908;51.984;5.928;2023-07-31T00:26:15;1.35;;;0.88;;
39022;SDS011;25908;51.984;5.928;2023-07-31T00:28:41;1.52;;;0.88;;
39022;SDS011;25908;51.984;5.928;2023-07-31T00:31:07;1.15;;;0.80;;
39022;SDS011;25908;51.984;5.928;2023-07-31T00:33:34;1.42;;;0.90;;
39022;SDS011;25908;51.984;5.928;2023-07-31T00:36:00;1.30;;;0.95;;
39022;SDS011;25908;51.984;5.928;2023-07-31T00:38:25;1.63;;;1.20;;
39022;SDS011;25908;51.984;5.928;2023-07-31T00:40:51;2.28;;;1.02;;
39022;SDS011;25908;51.984;5.928;2023-07-31T00:43:16;1.83;;;1.15;;
39022;SDS011;25908;51.984;5.928;2023-07-31T00:45:42;1.20;;;1.10;;
39022;SDS011;25908;51.984;5.928;2023-07-31T00:48:08;2.15;;;1.48;;
39022;SDS011;25908;51.984;5.928;2023-07-31T00:50:34;4.20;;;1.60;;
39022;SDS011;25908;51.984;5.928;2023-07-31T00:53:00;4.85;;;1.90;;
39022;SDS011;25908;51.984;5.928;2023-07-31T00:55:26;4.95;;;2.47;;
39022;SDS011;25908;51.984;5.928;2023-07-31T00:57:52;6.68;;;3.00;;
39022;SDS011;25908;51.984;5.928;2023-07-31T01:00:20;12.57;;;4.03;;
39022;SDS011;25908;51.984;5.928;2023-07-31T01:02:46;7.85;;;3.75;;
39022;SDS011;25908;51.984;5.928;2023-07-31T01:05:13;7.15;;;4.22;;
39022;SDS011;25908;51.984;5.928;2023-07-31T01:07:47;8.77;;;4.40;;
39022;SDS011;25908;51.984;5.928;2023-07-31T01:10:21;11.27;;;5.15;;
39022;SDS011;25908;51.984;5.928;2023-07-31T01:12:59;16.45;;;5.75;;
39022;SDS011;25908;51.984;5.928;2023-07-31T01:15:24;12.82;;;6.80;;
39022;SDS011;25908;51.984;5.928;2023-07-31T01:17:50;16.67;;;8.13;;
39022;SDS011;25908;51.984;5.928;2023-07-31T01:20:22;19.25;;;8.23;;
39022;SDS011;25908;51.984;5.928;2023-07-31T01:26:03;17.50;;;7.57;;
39022;SDS011;25908;51.984;5.928;2023-07-31T01:28:55;17.50;;;7.72;;
39022;SDS011;25908;51.984;5.928;2023-07-31T01:31:26;15.02;;;7.35;;
39022;SDS011;25908;51.984;5.928;2023-07-31T01:33:53;20.42;;;7.63;;
39022;SDS011;25908;51.984;5.928;2023-07-31T01:36:21;22.95;;;8.13;;
39022;SDS011;25908;51.984;5.928;2023-07-31T01:38:47;17.65;;;8.10;;
39022;SDS011;25908;51.984;5.928;2023-07-31T01:41:12;22.40;;;7.72;;
39022;SDS011;25908;51.984;5.928;2023-07-31T01:43:38;20.92;;;8.23;;
39022;SDS011;25908;51.984;5.928;2023-07-31T01:46:04;20.60;;;8.48;;
39022;SDS011;25908;51.984;5.928;2023-07-31T01:48:29;22.90;;;8.32;;
39022;SDS011;25908;51.984;5.928;2023-07-31T01:51:00;18.50;;;7.40;;
39022;SDS011;25908;51.984;5.928;2023-07-31T01:53:26;15.18;;;7.45;;
39022;SDS011;25908;51.984;5.928;2023-07-31T01:55:52;17.02;;;7.45;;
39022;SDS011;25908;51.984;5.928;2023-07-31T01:58:18;16.20;;;6.60;;
39022;SDS011;25908;51.984;5.928;2023-07-31T02:00:43;14.57;;;7.15;;
39022;SDS011;25908;51.984;5.928;2023-07-31T02:03:09;16.30;;;6.75;;
39022;SDS011;25908;51.984;5.928;2023-07-31T02:05:34;16.02;;;6.65;;
39022;SDS011;25908;51.984;5.928;2023-07-31T02:08:00;17.30;;;8.00;;
39022;SDS011;25908;51.984;5.928;2023-07-31T02:10:26;14.80;;;6.80;;
39022;SDS011;25908;51.984;5.928;2023-07-31T02:12:51;18.63;;;7.78;;
39022;SDS011;25908;51.984;5.928;2023-07-31T02:15:17;16.15;;;6.63;;
39022;SDS011;25908;51.984;5.928;2023-07-31T02:17:43;13.32;;;6.35;;
39022;SDS011;25908;51.984;5.928;2023-07-31T02:20:09;16.23;;;7.70;;
39022;SDS011;25908;51.984;5.928;2023-07-31T02:22:35;16.52;;;6.72;;
39022;SDS011;25908;51.984;5.928;2023-07-31T02:25:00;16.58;;;6.10;;
39022;SDS011;25908;51.984;5.928;2023-07-31T02:27:26;15.82;;;6.45;;
39022;SDS011;25908;51.984;5.928;2023-07-31T02:29:52;14.55;;;6.55;;
39022;SDS011;25908;51.984;5.928;2023-07-31T02:32:18;15.73;;;6.57;;
39022;SDS011;25908;51.984;5.928;2023-07-31T02:34:44;12.73;;;6.18;;
39022;SDS011;25908;51.984;5.928;2023-07-31T02:37:09;14.63;;;5.90;;
39022;SDS011;25908;51.984;5.928;2023-07-31T02:39:35;12.10;;;5.55;;
39022;SDS011;25908;51.984;5.928;2023-07-31T02:42:00;13.30;;;6.22;;
39022;SDS011;25908;51.984;5.928;2023-07-31T02:44:26;12.82;;;5.60;;
39022;SDS011;25908;51.984;5.928;2023-07-31T02:46:52;13.15;;;5.22;;
39022;SDS011;25908;51.984;5.928;2023-07-31T02:49:17;13.02;;;6.03;;
39022;SDS011;25908;51.984;5.928;2023-07-31T02:51:43;12.30;;;5.80;;
39022;SDS011;25908;51.984;5.928;2023-07-31T02:54:08;17.33;;;6.25;;
39022;SDS011;25908;51.984;5.928;2023-07-31T02:56:34;13.98;;;5.85;;
39022;SDS011;25908;51.984;5.928;2023-07-31T02:58:59;13.73;;;6.30;;
39022;SDS011;25908;51.984;5.928;2023-07-31T03:01:25;14.63;;;6.18;;
39022;SDS011;25908;51.984;5.928;2023-07-31T03:03:51;12.60;;;5.32;;
39022;SDS011;25908;51.984;5.928;2023-07-31T03:06:16;10.95;;;5.28;;
39022;SDS011;25908;51.984;5.928;2023-07-31T03:08:42;14.50;;;5.63;;
39022;SDS011;25908;51.984;5.928;2023-07-31T03:11:07;13.80;;;6.32;;
39022;SDS011;25908;51.984;5.928;2023-07-31T03:13:33;14.52;;;5.55;;
39022;SDS011;25908;51.984;5.928;2023-07-31T03:15:58;12.30;;;6.05;;
39022;SDS011;25908;51.984;5.928;2023-07-31T03:18:24;14.43;;;6.13;;
39022;SDS011;25908;51.984;5.928;2023-07-31T03:20:50;16.88;;;6.38;;
39022;SDS011;25908;51.984;5.928;2023-07-31T03:23:15;15.23;;;6.57;;
39022;SDS011;25908;51.984;5.928;2023-07-31T03:25:42;15.95;;;6.53;;
39022;SDS011;25908;51.984;5.928;2023-07-31T03:28:24;13.63;;;5.55;;
39022;SDS011;25908;51.984;5.928;2023-07-31T03:30:49;14.23;;;5.47;;
39022;SDS011;25908;51.984;5.928;2023-07-31T03:33:16;13.38;;;5.70;;
39022;SDS011;25908;51.984;5.928;2023-07-31T03:35:41;14.95;;;6.53;;
39022;SDS011;25908;51.984;5.928;2023-07-31T03:38:07;17.00;;;6.88;;
39022;SDS011;25908;51.984;5.928;2023-07-31T03:40:32;17.55;;;7.10;;
39022;SDS011;25908;51.984;5.928;2023-07-31T03:42:58;14.68;;;6.07;;
39022;SDS011;25908;51.984;5.928;2023-07-31T03:45:23;16.02;;;5.95;;
39022;SDS011;25908;51.984;5.928;2023-07-31T03:47:49;12.48;;;5.43;;
39022;SDS011;25908;51.984;5.928;2023-07-31T03:50:15;17.00;;;6.78;;
39022;SDS011;25908;51.984;5.928;2023-07-31T03:52:40;16.42;;;6.72;;
39022;SDS011;25908;51.984;5.928;2023-07-31T03:55:06;15.05;;;5.78;;
39022;SDS011;25908;51.984;5.928;2023-07-31T03:57:32;13.45;;;6.28;;
39022;SDS011;25908;51.984;5.928;2023-07-31T03:59:58;13.23;;;5.20;;
39022;SDS011;25908;51.984;5.928;2023-07-31T04:02:24;13.25;;;5.47;;
39022;SDS011;25908;51.984;5.928;2023-07-31T04:04:49;14.07;;;5.88;;
39022;SDS011;25908;51.984;5.928;2023-07-31T04:07:15;14.68;;;5.70;;
39022;SDS011;25908;51.984;5.928;2023-07-31T04:09:40;12.98;;;5.88;;
39022;SDS011;25908;51.984;5.928;2023-07-31T04:12:06;14.57;;;5.70;;
39022;SDS011;25908;51.984;5.928;2023-07-31T04:14:32;12.45;;;5.60;;
39022;SDS011;25908;51.984;5.928;2023-07-31T04:16:57;13.07;;;5.55;;
39022;SDS011;25908;51.984;5.928;2023-07-31T04:19:23;14.40;;;6.40;;
39022;SDS011;25908;51.984;5.928;2023-07-31T04:21:49;14.18;;;6.20;;
39022;SDS011;25908;51.984;5.928;2023-07-31T04:24:15;15.25;;;5.35;;
39022;SDS011;25908;51.984;5.928;2023-07-31T04:26:40;13.70;;;5.55;;
39022;SDS011;25908;51.984;5.928;2023-07-31T04:29:06;11.60;;;4.97;;
39022;SDS011;25908;51.984;5.928;2023-07-31T04:31:33;14.18;;;5.43;;
39022;SDS011;25908;51.984;5.928;2023-07-31T04:33:58;14.77;;;5.38;;
39022;SDS011;25908;51.984;5.928;2023-07-31T04:36:24;14.60;;;5.13;;
39022;SDS011;25908;51.984;5.928;2023-07-31T04:38:50;13.02;;;5.07;;
39022;SDS011;25908;51.984;5.928;2023-07-31T04:41:15;13.90;;;5.25;;
39022;SDS011;25908;51.984;5.928;2023-07-31T04:43:41;15.18;;;6.10;;
39022;SDS011;25908;51.984;5.928;2023-07-31T04:46:06;13.50;;;5.40;;
39022;SDS011;25908;51.984;5.928;2023-07-31T04:48:32;14.18;;;5.63;;
39022;SDS011;25908;51.984;5.928;2023-07-31T04:50:58;15.45;;;5.22;;
39022;SDS011;25908;51.984;5.928;2023-07-31T04:53:23;17.52;;;5.97;;
39022;SDS011;25908;51.984;5.928;2023-07-31T04:55:49;14.07;;;5.97;;
39022;SDS011;25908;51.984;5.928;2023-07-31T04:58:14;12.40;;;5.10;;
39022;SDS011;25908;51.984;5.928;2023-07-31T05:00:40;13.50;;;5.13;;
39022;SDS011;25908;51.984;5.928;2023-07-31T05:03:05;11.13;;;4.78;;
39022;SDS011;25908;51.984;5.928;2023-07-31T05:05:32;12.25;;;5.30;;
39022;SDS011;25908;51.984;5.928;2023-07-31T05:07:57;13.70;;;5.50;;
39022;SDS011;25908;51.984;5.928;2023-07-31T05:10:23;13.88;;;5.65;;
39022;SDS011;25908;51.984;5.928;2023-07-31T05:12:49;15.32;;;5.53;;
39022;SDS011;25908;51.984;5.928;2023-07-31T05:15:14;13.13;;;5.30;;
39022;SDS011;25908;51.984;5.928;2023-07-31T05:17:40;12.90;;;5.30;;
39022;SDS011;25908;51.984;5.928;2023-07-31T05:20:06;17.02;;;5.72;;
39022;SDS011;25908;51.984;5.928;2023-07-31T05:22:32;13.00;;;5.35;;
39022;SDS011;25908;51.984;5.928;2023-07-31T05:24:57;10.65;;;4.35;;
39022;SDS011;25908;51.984;5.928;2023-07-31T05:27:23;10.00;;;4.95;;
39022;SDS011;25908;51.984;5.928;2023-07-31T05:29:49;11.10;;;4.93;;
39022;SDS011;25908;51.984;5.928;2023-07-31T05:32:14;12.80;;;4.93;;
39022;SDS011;25908;51.984;5.928;2023-07-31T05:34:40;12.77;;;4.97;;
39022;SDS011;25908;51.984;5.928;2023-07-31T05:37:05;9.93;;;5.05;;
39022;SDS011;25908;51.984;5.928;2023-07-31T05:39:31;16.20;;;6.00;;
39022;SDS011;25908;51.984;5.928;2023-07-31T05:41:57;11.27;;;4.88;;
39022;SDS011;25908;51.984;5.928;2023-07-31T05:44:22;11.20;;;5.25;;
39022;SDS011;25908;51.984;5.928;2023-07-31T05:46:48;10.05;;;4.80;;
39022;SDS011;25908;51.984;5.928;2023-07-31T05:49:13;9.90;;;4.68;;
39022;SDS011;25908;51.984;5.928;2023-07-31T05:51:39;10.25;;;4.47;;
39022;SDS011;25908;51.984;5.928;2023-07-31T05:54:04;10.32;;;4.03;;
39022;SDS011;25908;51.984;5.928;2023-07-31T05:56:30;11.20;;;4.47;;
39022;SDS011;25908;51.984;5.928;2023-07-31T05:58:56;11.02;;;4.95;;
39022;SDS011;25908;51.984;5.928;2023-07-31T06:01:22;11.40;;;4.90;;
39022;SDS011;25908;51.984;5.928;2023-07-31T06:03:48;10.23;;;4.00;;
39022;SDS011;25908;51.984;5.928;2023-07-31T06:06:13;8.77;;;4.25;;
39022;SDS011;25908;51.984;5.928;2023-07-31T06:08:39;11.27;;;4.47;;
39022;SDS011;25908;51.984;5.928;2023-07-31T06:11:05;9.07;;;4.30;;
39022;SDS011;25908;51.984;5.928;2023-07-31T06:13:32;7.88;;;4.30;;
39022;SDS011;25908;51.984;5.928;2023-07-31T06:15:57;9.45;;;4.25;;
39022;SDS011;25908;51.984;5.928;2023-07-31T06:18:24;10.43;;;4.35;;
39022;SDS011;25908;51.984;5.928;2023-07-31T06:20:50;6.93;;;3.53;;
39022;SDS011;25908;51.984;5.928;2023-07-31T06:23:18;9.10;;;3.78;;
39022;SDS011;25908;51.984;5.928;2023-07-31T06:25:44;6.75;;;3.65;;
39022;SDS011;25908;51.984;5.928;2023-07-31T06:28:10;9.68;;;4.60;;
39022;SDS011;25908;51.984;5.928;2023-07-31T06:30:35;9.27;;;4.13;;
39022;SDS011;25908;51.984;5.928;2023-07-31T06:33:01;7.00;;;3.53;;
39022;SDS011;25908;51.984;5.928;2023-07-31T06:35:27;10.60;;;3.78;;
39022;SDS011;25908;51.984;5.928;2023-07-31T06:37:53;8.77;;;4.32;;
39022;SDS011;25908;51.984;5.928;2023-07-31T06:40:18;7.85;;;3.65;;
39022;SDS011;25908;51.984;5.928;2023-07-31T06:42:44;8.82;;;4.05;;
39022;SDS011;25908;51.984;5.928;2023-07-31T06:45:10;8.85;;;4.07;;
39022;SDS011;25908;51.984;5.928;2023-07-31T06:47:35;6.03;;;2.85;;
39022;SDS011;25908;51.984;5.928;2023-07-31T06:50:01;8.35;;;3.60;;
39022;SDS011;25908;51.984;5.928;2023-07-31T06:52:27;10.77;;;4.32;;
39022;SDS011;25908;51.984;5.928;2023-07-31T06:55:02;5.80;;;2.90;;
39022;SDS011;25908;51.984;5.928;2023-07-31T06:57:29;6.47;;;3.15;;
39022;SDS011;25908;51.984;5.928;2023-07-31T06:59:55;8.27;;;3.53;;
39022;SDS011;25908;51.984;5.928;2023-07-31T07:02:20;6.53;;;3.03;;
39022;SDS011;25908;51.984;5.928;2023-07-31T07:04:46;6.45;;;2.70;;
39022;SDS011;25908;51.984;5.928;2023-07-31T07:07:11;7.00;;;3.00;;
39022;SDS011;25908;51.984;5.928;2023-07-31T07:09:37;8.18;;;3.60;;
39022;SDS011;25908;51.984;5.928;2023-07-31T07:12:03;5.63;;;2.58;;
39022;SDS011;25908;51.984;5.928;2023-07-31T07:14:28;6.15;;;2.95;;
39022;SDS011;25908;51.984;5.928;2023-07-31T07:16:54;6.13;;;2.72;;
39022;SDS011;25908;51.984;5.928;2023-07-31T07:19:19;4.15;;;1.95;;
39022;SDS011;25908;51.984;5.928;2023-07-31T07:21:45;5.47;;;2.00;;
39022;SDS011;25908;51.984;5.928;2023-07-31T07:24:11;3.60;;;1.80;;
39022;SDS011;25908;51.984;5.928;2023-07-31T07:26:36;4.18;;;1.80;;
39022;SDS011;25908;51.984;5.928;2023-07-31T07:29:02;3.38;;;1.70;;
39022;SDS011;25908;51.984;5.928;2023-07-31T07:31:28;3.00;;;1.58;;
39022;SDS011;25908;51.984;5.928;2023-07-31T07:33:53;2.85;;;1.58;;
39022;SDS011;25908;51.984;5.928;2023-07-31T07:36:19;3.35;;;1.27;;
39022;SDS011;25908;51.984;5.928;2023-07-31T07:38:44;2.28;;;1.27;;
39022;SDS011;25908;51.984;5.928;2023-07-31T07:41:10;3.15;;;1.38;;
39022;SDS011;25908;51.984;5.928;2023-07-31T07:43:36;2.42;;;1.00;;
39022;SDS011;25908;51.984;5.928;2023-07-31T07:46:01;1.65;;;1.17;;
39022;SDS011;25908;51.984;5.928;2023-07-31T07:48:27;2.22;;;1.10;;
39022;SDS011;25908;51.984;5.928;2023-07-31T07:50:52;2.13;;;1.10;;
39022;SDS011;25908;51.984;5.928;2023-07-31T07:53:18;1.80;;;0.93;;
39022;SDS011;25908;51.984;5.928;2023-07-31T07:55:43;1.60;;;0.80;;
39022;SDS011;25908;51.984;5.928;2023-07-31T07:58:09;2.13;;;1.00;;
39022;SDS011;25908;51.984;5.928;2023-07-31T08:00:34;1.95;;;0.90;;
39022;SDS011;25908;51.984;5.928;2023-07-31T08:03:00;1.98;;;1.08;;
39022;SDS011;25908;51.984;5.928;2023-07-31T08:05:26;1.85;;;1.00;;
39022;SDS011;25908;51.984;5.928;2023-07-31T08:07:51;1.30;;;0.88;;
39022;SDS011;25908;51.984;5.928;2023-07-31T08:10:17;1.30;;;0.90;;
39022;SDS011;25908;51.984;5.928;2023-07-31T08:12:42;2.03;;;0.90;;
39022;SDS011;25908;51.984;5.928;2023-07-31T08:15:08;1.55;;;0.98;;
39022;SDS011;25908;51.984;5.928;2023-07-31T08:17:34;1.10;;;0.80;;
39022;SDS011;25908;51.984;5.928;2023-07-31T08:19:59;1.83;;;1.10;;
39022;SDS011;25908;51.984;5.928;2023-07-31T08:22:25;1.30;;;0.80;;
39022;SDS011;25908;51.984;5.928;2023-07-31T08:24:51;1.92;;;1.15;;
39022;SDS011;25908;51.984;5.928;2023-07-31T08:27:16;1.95;;;1.20;;
39022;SDS011;25908;51.984;5.928;2023-07-31T08:29:42;2.58;;;1.25;;
39022;SDS011;25908;51.984;5.928;2023-07-31T08:32:07;2.33;;;1.25;;
39022;SDS011;25908;51.984;5.928;2023-07-31T08:34:33;2.90;;;1.75;;
39022;SDS011;25908;51.984;5.928;2023-07-31T08:36:58;2.60;;;1.40;;
39022;SDS011;25908;51.984;5.928;2023-07-31T08:39:24;2.33;;;1.40;;
39022;SDS011;25908;51.984;5.928;2023-07-31T08:41:49;2.42;;;1.50;;
39022;SDS011;25908;51.984;5.928;2023-07-31T08:44:15;2.10;;;1.60;;
39022;SDS011;25908;51.984;5.928;2023-07-31T08:46:42;3.67;;;1.63;;
39022;SDS011;25908;51.984;5.928;2023-07-31T08:49:08;2.95;;;1.80;;
39022;SDS011;25908;51.984;5.928;2023-07-31T08:51:35;2.58;;;1.55;;
39022;SDS011;25908;51.984;5.928;2023-07-31T08:54:01;1.88;;;1.50;;
39022;SDS011;25908;51.984;5.928;2023-07-31T08:56:29;2.60;;;1.77;;
39022;SDS011;25908;51.984;5.928;2023-07-31T08:58:56;2.53;;;1.55;;
39022;SDS011;25908;51.984;5.928;2023-07-31T09:01:24;2.17;;;1.75;;
39022;SDS011;25908;51.984;5.928;2023-07-31T09:03:50;2.85;;;1.90;;
39022;SDS011;25908;51.984;5.928;2023-07-31T09:06:17;3.38;;;2.10;;
39022;SDS011;25908;51.984;5.928;2023-07-31T09:08:45;3.13;;;2.10;;
39022;SDS011;25908;51.984;5.928;2023-07-31T09:11:11;2.83;;;1.75;;
39022;SDS011;25908;51.984;5.928;2023-07-31T09:13:37;2.17;;;1.55;;
39022;SDS011;25908;51.984;5.928;2023-07-31T09:16:05;4.13;;;1.80;;
39022;SDS011;25908;51.984;5.928;2023-07-31T09:18:30;3.42;;;2.25;;
39022;SDS011;25908;51.984;5.928;2023-07-31T09:21:05;2.40;;;1.75;;
39022;SDS011;25908;51.984;5.928;2023-07-31T09:23:44;3.47;;;2.10;;
39022;SDS011;25908;51.984;5.928;2023-07-31T09:26:28;3.13;;;2.30;;
39022;SDS011;25908;51.984;5.928;2023-07-31T09:28:58;4.20;;;3.00;;
39022;SDS011;25908;51.984;5.928;2023-07-31T09:31:58;4.28;;;2.90;;
39022;SDS011;25908;51.984;5.928;2023-07-31T09:34:17;3.47;;;2.55;;
39022;SDS011;25908;51.984;5.928;2023-07-31T09:36:43;5.15;;;2.90;;
39022;SDS011;25908;51.984;5.928;2023-07-31T09:39:12;4.95;;;3.13;;
39022;SDS011;25908;51.984;5.928;2023-07-31T09:41:39;5.72;;;3.13;;
39022;SDS011;25908;51.984;5.928;2023-07-31T09:44:06;4.30;;;2.92;;
39022;SDS011;25908;51.984;5.928;2023-07-31T09:46:32;5.75;;;3.85;;
39022;SDS011;25908;51.984;5.928;2023-07-31T09:49:07;5.03;;;3.08;;
39022;SDS011;25908;51.984;5.928;2023-07-31T09:51:37;4.50;;;3.45;;
39022;SDS011;25908;51.984;5.928;2023-07-31T09:54:06;7.50;;;3.92;;
39022;SDS011;25908;51.984;5.928;2023-07-31T09:56:35;5.97;;;4.80;;
39022;SDS011;25908;51.984;5.928;2023-07-31T09:59:06;5.15;;;3.92;;
39022;SDS011;25908;51.984;5.928;2023-07-31T10:01:35;6.68;;;4.70;;
39022;SDS011;25908;51.984;5.928;2023-07-31T10:04:01;8.70;;;4.90;;
39022;SDS011;25908;51.984;5.928;2023-07-31T10:06:28;7.78;;;4.03;;
39022;SDS011;25908;51.984;5.928;2023-07-31T10:08:54;7.28;;;4.45;;
39022;SDS011;25908;51.984;5.928;2023-07-31T10:11:20;5.22;;;4.15;;
39022;SDS011;25908;51.984;5.928;2023-07-31T10:13:49;5.93;;;4.82;;
39022;SDS011;25908;51.984;5.928;2023-07-31T10:16:15;6.72;;;4.70;;
39022;SDS011;25908;51.984;5.928;2023-07-31T10:18:41;6.43;;;4.75;;
39022;SDS011;25908;51.984;5.928;2023-07-31T10:21:08;5.55;;;3.90;;
39022;SDS011;25908;51.984;5.928;2023-07-31T10:23:34;6.30;;;5.07;;
39022;SDS011;25908;51.984;5.928;2023-07-31T10:26:00;8.40;;;5.97;;
39022;SDS011;25908;51.984;5.928;2023-07-31T10:28:27;9.48;;;5.93;;
39022;SDS011;25908;51.984;5.928;2023-07-31T10:30:54;7.97;;;5.20;;
39022;SDS011;25908;51.984;5.928;2023-07-31T10:33:20;6.95;;;5.28;;
39022;SDS011;25908;51.984;5.928;2023-07-31T10:35:49;6.50;;;5.43;;
39022;SDS011;25908;51.984;5.928;2023-07-31T10:38:18;7.88;;;5.97;;
39022;SDS011;25908;51.984;5.928;2023-07-31T10:40:44;7.00;;;5.63;;
39022;SDS011;25908;51.984;5.928;2023-07-31T10:43:10;10.00;;;6.03;;
39022;SDS011;25908;51.984;5.928;2023-07-31T10:45:50;6.90;;;5.85;;
39022;SDS011;25908;51.984;5.928;2023-07-31T10:48:16;8.90;;;6.05;;
39022;SDS011;25908;51.984;5.928;2023-07-31T10:50:51;9.68;;;6.22;;
39022;SDS011;25908;51.984;5.928;2023-07-31T10:53:29;9.80;;;6.03;;
39022;SDS011;25908;51.984;5.928;2023-07-31T10:55:59;9.02;;;5.75;;
39022;SDS011;25908;51.984;5.928;2023-07-31T10:58:25;8.23;;;5.85;;
39022;SDS011;25908;51.984;5.928;2023-07-31T11:00:51;8.15;;;5.70;;
39022;SDS011;25908;51.984;5.928;2023-07-31T11:03:24;6.43;;;5.22;;
39022;SDS011;25908;51.984;5.928;2023-07-31T11:05:52;10.23;;;5.82;;
39022;SDS011;25908;51.984;5.928;2023-07-31T11:08:25;7.85;;;4.97;;
39022;SDS011;25908;51.984;5.928;2023-07-31T11:13:26;7.53;;;5.47;;
39022;SDS011;25908;51.984;5.928;2023-07-31T11:16:00;9.40;;;6.00;;
39022;SDS011;25908;51.984;5.928;2023-07-31T11:18:26;7.93;;;5.78;;
39022;SDS011;25908;51.984;5.928;2023-07-31T11:20:52;9.05;;;5.45;;
39022;SDS011;25908;51.984;5.928;2023-07-31T11:23:18;7.13;;;5.30;;
39022;SDS011;25908;51.984;5.928;2023-07-31T11:25:45;8.07;;;5.65;;
39022;SDS011;25908;51.984;5.928;2023-07-31T11:28:11;5.78;;;4.57;;
39022;SDS011;25908;51.984;5.928;2023-07-31T11:30:38;8.05;;;4.82;;
39022;SDS011;25908;51.984;5.928;2023-07-31T11:33:09;8.93;;;5.35;;
39022;SDS011;25908;51.984;5.928;2023-07-31T11:35:40;6.05;;;4.63;;
39022;SDS011;25908;51.984;5.928;2023-07-31T11:38:10;8.52;;;4.55;;
39022;SDS011;25908;51.984;5.928;2023-07-31T11:40:56;7.35;;;4.70;;
39022;SDS011;25908;51.984;5.928;2023-07-31T11:43:23;7.60;;;5.43;;
39022;SDS011;25908;51.984;5.928;2023-07-31T11:45:50;8.60;;;5.82;;
39022;SDS011;25908;51.984;5.928;2023-07-31T11:48:29;7.32;;;4.35;;
39022;SDS011;25908;51.984;5.928;2023-07-31T11:51:01;8.00;;;4.43;;
39022;SDS011;25908;51.984;5.928;2023-07-31T11:53:29;8.43;;;4.95;;
39022;SDS011;25908;51.984;5.928;2023-07-31T11:56:09;5.72;;;4.05;;
39022;SDS011;25908;51.984;5.928;2023-07-31T11:58:36;5.32;;;3.95;;
39022;SDS011;25908;51.984;5.928;2023-07-31T12:01:04;5.60;;;4.10;;
39022;SDS011;25908;51.984;5.928;2023-07-31T12:03:30;7.10;;;4.72;;
39022;SDS011;25908;51.984;5.928;2023-07-31T12:05:58;7.13;;;4.53;;
39022;SDS011;25908;51.984;5.928;2023-07-31T12:08:24;6.25;;;4.70;;
39022;SDS011;25908;51.984;5.928;2023-07-31T12:10:51;5.13;;;3.72;;
39022;SDS011;25908;51.984;5.928;2023-07-31T12:13:21;6.07;;;4.30;;
39022;SDS011;25908;51.984;5.928;2023-07-31T12:15:48;6.00;;;3.60;;
39022;SDS011;25908;51.984;5.928;2023-07-31T12:18:19;6.20;;;3.97;;
39022;SDS011;25908;51.984;5.928;2023-07-31T12:20:46;7.72;;;4.00;;
39022;SDS011;25908;51.984;5.928;2023-07-31T12:23:14;6.40;;;3.80;;
39022;SDS011;25908;51.984;5.928;2023-07-31T12:25:41;5.75;;;4.00;;
39022;SDS011;25908;51.984;5.928;2023-07-31T12:28:07;7.95;;;4.07;;
39022;SDS011;25908;51.984;5.928;2023-07-31T12:30:37;6.50;;;4.07;;
39022;SDS011;25908;51.984;5.928;2023-07-31T12:33:04;5.90;;;3.63;;
39022;SDS011;25908;51.984;5.928;2023-07-31T12:35:34;4.55;;;2.95;;
39022;SDS011;25908;51.984;5.928;2023-07-31T12:38:02;5.10;;;3.60;;
39022;SDS011;25908;51.984;5.928;2023-07-31T12:40:28;5.53;;;4.13;;
39022;SDS011;25908;51.984;5.928;2023-07-31T12:42:53;5.97;;;3.88;;
39022;SDS011;25908;51.984;5.928;2023-07-31T12:45:19;7.05;;;4.03;;
39022;SDS011;25908;51.984;5.928;2023-07-31T12:47:46;7.28;;;4.20;;
39022;SDS011;25908;51.984;5.928;2023-07-31T12:50:11;6.55;;;4.50;;
39022;SDS011;25908;51.984;5.928;2023-07-31T12:52:37;7.75;;;4.88;;
39022;SDS011;25908;51.984;5.928;2023-07-31T12:55:03;4.78;;;3.65;;
39022;SDS011;25908;51.984;5.928;2023-07-31T12:57:29;7.55;;;4.95;;
39022;SDS011;25908;51.984;5.928;2023-07-31T12:59:55;6.78;;;4.60;;
39022;SDS011;25908;51.984;5.928;2023-07-31T13:02:21;6.75;;;4.60;;
39022;SDS011;25908;51.984;5.928;2023-07-31T13:04:46;8.18;;;4.88;;
39022;SDS011;25908;51.984;5.928;2023-07-31T13:07:12;7.50;;;4.28;;
39022;SDS011;25908;51.984;5.928;2023-07-31T13:09:37;5.68;;;4.38;;
39022;SDS011;25908;51.984;5.928;2023-07-31T13:12:03;5.35;;;4.30;;
39022;SDS011;25908;51.984;5.928;2023-07-31T13:14:29;5.68;;;4.15;;
39022;SDS011;25908;51.984;5.928;2023-07-31T13:16:55;5.82;;;4.07;;
39022;SDS011;25908;51.984;5.928;2023-07-31T13:19:20;8.02;;;4.65;;
39022;SDS011;25908;51.984;5.928;2023-07-31T13:21:46;6.80;;;4.82;;
39022;SDS011;25908;51.984;5.928;2023-07-31T13:24:11;9.00;;;5.30;;
39022;SDS011;25908;51.984;5.928;2023-07-31T13:26:37;7.47;;;5.10;;
39022;SDS011;25908;51.984;5.928;2023-07-31T13:29:02;5.53;;;4.32;;
39022;SDS011;25908;51.984;5.928;2023-07-31T13:31:28;5.72;;;4.60;;
39022;SDS011;25908;51.984;5.928;2023-07-31T13:33:54;5.72;;;4.55;;
39022;SDS011;25908;51.984;5.928;2023-07-31T13:36:19;6.30;;;4.07;;
39022;SDS011;25908;51.984;5.928;2023-07-31T13:38:45;6.97;;;4.50;;
39022;SDS011;25908;51.984;5.928;2023-07-31T13:41:10;6.28;;;4.40;;
39022;SDS011;25908;51.984;5.928;2023-07-31T13:43:36;4.70;;;3.95;;
39022;SDS011;25908;51.984;5.928;2023-07-31T13:46:01;6.88;;;3.78;;
39022;SDS011;25908;51.984;5.928;2023-07-31T13:48:31;6.45;;;4.18;;
39022;SDS011;25908;51.984;5.928;2023-07-31T13:50:59;5.07;;;3.50;;
39022;SDS011;25908;51.984;5.928;2023-07-31T13:53:25;5.47;;;4.05;;
39022;SDS011;25908;51.984;5.928;2023-07-31T13:55:50;4.03;;;3.40;;
39022;SDS011;25908;51.984;5.928;2023-07-31T13:58:16;5.43;;;3.78;;
39022;SDS011;25908;51.984;5.928;2023-07-31T14:00:42;6.18;;;3.67;;
39022;SDS011;25908;51.984;5.928;2023-07-31T14:03:08;5.18;;;3.40;;
39022;SDS011;25908;51.984;5.928;2023-07-31T14:05:33;9.52;;;3.83;;
39022;SDS011;25908;51.984;5.928;2023-07-31T14:07:59;6.53;;;4.45;;
39022;SDS011;25908;51.984;5.928;2023-07-31T14:10:25;5.68;;;4.20;;
39022;SDS011;25908;51.984;5.928;2023-07-31T14:12:50;6.65;;;4.22;;
39022;SDS011;25908;51.984;5.928;2023-07-31T14:15:16;5.55;;;3.67;;
39022;SDS011;25908;51.984;5.928;2023-07-31T14:17:41;8.18;;;4.70;;
39022;SDS011;25908;51.984;5.928;2023-07-31T14:20:07;7.38;;;4.72;;
39022;SDS011;25908;51.984;5.928;2023-07-31T14:22:33;8.13;;;4.82;;
39022;SDS011;25908;51.984;5.928;2023-07-31T14:24:59;7.13;;;4.40;;
39022;SDS011;25908;51.984;5.928;2023-07-31T14:27:25;7.03;;;4.40;;
39022;SDS011;25908;51.984;5.928;2023-07-31T14:29:51;7.00;;;4.55;;
39022;SDS011;25908;51.984;5.928;2023-07-31T14:32:16;6.45;;;4.75;;
39022;SDS011;25908;51.984;5.928;2023-07-31T14:34:42;6.45;;;4.05;;
39022;SDS011;25908;51.984;5.928;2023-07-31T14:37:07;8.68;;;4.28;;
39022;SDS011;25908;51.984;5.928;2023-07-31T14:39:33;7.53;;;4.40;;
39022;SDS011;25908;51.984;5.928;2023-07-31T14:41:59;7.57;;;4.80;;
39022;SDS011;25908;51.984;5.928;2023-07-31T14:44:24;6.75;;;4.13;;
39022;SDS011;25908;51.984;5.928;2023-07-31T14:46:50;8.85;;;4.78;;